Time;durP1;ratioP1;P1;durP2;ratioP2;P2;SDS_P1;SDS_P2;PMS_P1;PMS_P2;Temp;Humidity;BMP_temperature;BMP_pressure;BME280_temperature;BME280_humidity;BME280_pressure;Samples;Min_cycle;Max_cycle;Signal;HPM_P1;HPM_P2
2021/12/25 00:00:06;;;;;;;122.65;48.42;;;8.70;99.90;;;;;;5011842;28;20042;-57
2021/12/25 00:02:34;;;;;;;114.60;48.47;;;8.60;99.90;;;;;;5010809;28;20028;-56
2021/12/25 00:04:59;;;;;;;99.85;44.72;;;8.50;99.90;;;;;;5010641;28;20075;-56
2021/12/25 00:07:25;;;;;;;99.53;44.58;;;8.20;99.90;;;;;;5011916;28;20104;-56
2021/12/25 00:09:51;;;;;;;109.65;46.85;;;8.20;99.90;;;;;;5012109;28;20018;-56
2021/12/25 00:12:16;;;;;;;92.63;43.35;;;8.20;99.90;;;;;;5010444;28;20040;-57
2021/12/25 00:14:42;;;;;;;87.93;41.83;;;8.20;99.90;;;;;;5011744;28;20387;-57
2021/12/25 00:17:08;;;;;;;99.38;43.80;;;8.00;99.90;;;;;;5011616;28;20265;-57
2021/12/25 00:19:33;;;;;;;92.35;42.75;;;8.00;99.90;;;;;;5011862;28;20026;-57
2021/12/25 00:22:00;;;;;;;97.75;43.78;;;8.00;99.90;;;;;;5011613;28;20450;-57
2021/12/25 00:24:26;;;;;;;91.70;43.22;;;8.10;99.90;;;;;;5011704;28;20049;-57
2021/12/25 00:27:00;;;;;;;95.07;44.30;;;8.10;99.90;;;;;;5011760;28;20041;-57
2021/12/25 00:29:54;;;;;;;99.72;43.28;;;8.10;99.90;;;;;;5011291;28;20030;-57
2021/12/25 00:34:46;;;;;;;104.20;44.42;;;8.10;99.90;;;;;;5011407;28;20124;-57
2021/12/25 00:37:11;;;;;;;98.10;42.75;;;8.10;99.90;;;;;;5011463;28;20026;-57
2021/12/25 00:39:37;;;;;;;93.32;42.80;;;8.20;99.90;;;;;;5011357;28;20092;-57
2021/12/25 00:42:05;;;;;;;98.18;42.90;;;8.10;99.90;;;;;;5011105;28;20021;-58
2021/12/25 00:44:32;;;;;;;113.03;44.25;;;8.10;99.90;;;;;;5011458;28;20032;-59
2021/12/25 00:46:58;;;;;;;117.97;46.85;;;8.20;99.90;;;;;;5011327;28;20124;-58
2021/12/25 00:49:24;;;;;;;132.27;48.35;;;8.50;99.90;;;;;;5011135;28;20428;-58
2021/12/25 00:51:50;;;;;;;145.48;53.22;;;8.50;99.90;;;;;;5011435;28;20040;-58
2021/12/25 00:54:16;;;;;;;129.57;49.05;;;8.50;99.90;;;;;;5011047;28;20022;-59
2021/12/25 00:56:42;;;;;;;121.68;47.55;;;8.50;99.90;;;;;;5009874;28;20033;-56
2021/12/25 00:59:08;;;;;;;102.43;43.85;;;8.40;99.90;;;;;;5011044;28;20101;-57
2021/12/25 01:01:34;;;;;;;123.95;46.78;;;8.20;99.90;;;;;;5011229;28;20029;-56
2021/12/25 01:03:59;;;;;;;117.80;46.25;;;8.20;99.90;;;;;;5011174;28;20373;-56
2021/12/25 01:06:25;;;;;;;108.07;45.05;;;8.30;99.90;;;;;;5010896;28;20053;-56
2021/12/25 01:08:51;;;;;;;99.03;44.35;;;8.30;99.90;;;;;;5010885;28;20456;-56
2021/12/25 01:11:16;;;;;;;101.57;44.08;;;8.20;99.90;;;;;;5010043;28;20079;-56
2021/12/25 01:13:55;;;;;;;100.40;42.58;;;8.20;99.90;;;;;;5010966;28;20022;-58
2021/12/25 01:19:25;;;;;;;90.40;40.00;;;8.00;99.90;;;;;;5010852;28;20394;-56
2021/12/25 01:27:08;;;;;;;89.07;40.42;;;8.00;99.90;;;;;;5010672;28;20068;-56
2021/12/25 01:37:35;;;;;;;99.65;42.70;;;8.20;99.90;;;;;;5010797;28;20030;-56
2021/12/25 01:48:18;;;;;;;110.35;43.17;;;8.20;99.90;;;;;;5010644;28;20446;-56
2021/12/25 01:50:44;;;;;;;105.35;43.70;;;8.30;99.90;;;;;;5010679;28;20360;-56
2021/12/25 01:53:10;;;;;;;133.15;46.40;;;8.40;99.90;;;;;;5010707;28;20037;-57
2021/12/25 01:55:36;;;;;;;101.20;44.63;;;8.60;99.90;;;;;;5010539;28;20115;-56
2021/12/25 01:58:04;;;;;;;103.13;41.92;;;8.40;99.90;;;;;;5010574;28;20564;-55
2021/12/25 02:00:34;;;;;;;110.05;41.25;;;8.20;99.90;;;;;;5010667;28;20021;-56
2021/12/25 02:03:01;;;;;;;139.75;47.97;;;8.20;99.90;;;;;;5010745;28;20030;-56
2021/12/25 02:05:26;;;;;;;177.60;52.55;;;8.50;99.90;;;;;;5009448;28;20041;-56
2021/12/25 02:07:52;;;;;;;178.35;53.22;;;8.50;99.90;;;;;;5011058;28;20030;-57
2021/12/25 02:10:18;;;;;;;164.32;52.65;;;8.50;99.90;;;;;;5010812;28;20060;-57
2021/12/25 02:12:46;;;;;;;161.60;52.28;;;8.40;99.90;;;;;;5010780;28;20037;-56
2021/12/25 02:15:16;;;;;;;145.10;50.90;;;8.40;99.90;;;;;;5009369;28;20026;-56
2021/12/25 02:20:20;;;;;;;114.13;44.78;;;8.20;99.90;;;;;;5010778;28;20396;-56
2021/12/25 02:22:47;;;;;;;102.88;45.25;;;8.10;99.90;;;;;;5012214;28;20026;-56
2021/12/25 02:25:13;;;;;;;109.95;46.50;;;8.10;99.90;;;;;;5013859;28;20046;-56
2021/12/25 02:27:39;;;;;;;103.40;45.10;;;8.10;99.90;;;;;;5013040;28;20034;-56
2021/12/25 02:30:06;;;;;;;107.18;45.00;;;8.20;99.90;;;;;;5013993;28;20141;-56
2021/12/25 02:32:32;;;;;;;118.03;47.30;;;8.10;99.90;;;;;;5013385;28;20026;-56
2021/12/25 02:34:58;;;;;;;119.47;48.45;;;8.30;99.90;;;;;;5013670;28;20049;-56
2021/12/25 02:37:23;;;;;;;104.15;44.50;;;8.40;99.90;;;;;;5013576;28;20026;-56
2021/12/25 02:39:51;;;;;;;102.60;42.85;;;8.30;99.90;;;;;;5013535;28;20078;-56
2021/12/25 02:42:17;;;;;;;115.90;46.03;;;8.20;99.90;;;;;;5012620;28;20026;-56
2021/12/25 02:44:43;;;;;;;97.22;43.20;;;8.20;99.90;;;;;;5014085;28;20054;-57
2021/12/25 02:47:19;;;;;;;97.30;41.75;;;8.30;99.90;;;;;;5013188;28;20069;-57
2021/12/25 02:49:51;;;;;;;87.80;40.55;;;8.10;99.90;;;;;;5013433;28;20116;-56
2021/12/25 02:52:19;;;;;;;81.85;39.53;;;8.20;99.90;;;;;;5013021;28;20037;-57
2021/12/25 02:54:46;;;;;;;83.07;38.83;;;8.20;99.90;;;;;;5013397;28;20034;-56
2021/12/25 02:57:12;;;;;;;78.38;38.60;;;8.10;99.90;;;;;;5013949;28;20022;-56
2021/12/25 02:59:38;;;;;;;64.93;34.85;;;8.00;99.90;;;;;;5013265;28;20437;-57
2021/12/25 03:02:12;;;;;;;67.53;35.47;;;7.90;99.90;;;;;;5013066;28;20133;-57
2021/12/25 03:04:39;;;;;;;76.55;37.22;;;7.90;99.90;;;;;;5013090;28;20084;-56
2021/12/25 03:07:06;;;;;;;77.28;37.33;;;8.00;99.90;;;;;;5013507;28;20049;-56
2021/12/25 03:09:32;;;;;;;80.55;39.63;;;8.00;99.90;;;;;;5013141;28;20030;-56
2021/12/25 03:11:58;;;;;;;91.15;41.22;;;8.10;99.90;;;;;;5013201;28;20033;-55
2021/12/25 03:14:36;;;;;;;88.93;41.75;;;8.20;99.90;;;;;;5013224;28;20029;-56
2021/12/25 03:17:03;;;;;;;75.22;37.25;;;8.20;99.90;;;;;;5012952;28;20500;-56
2021/12/25 03:19:32;;;;;;;76.18;36.28;;;8.00;99.90;;;;;;5012825;28;20076;-56
2021/12/25 03:22:04;;;;;;;81.78;38.35;;;8.00;99.90;;;;;;5013209;28;20056;-56
2021/12/25 03:24:30;;;;;;;80.47;38.38;;;8.10;99.90;;;;;;5013156;28;20025;-55
2021/12/25 03:26:57;;;;;;;87.80;39.78;;;8.00;99.90;;;;;;5012973;28;20057;-56
2021/12/25 03:29:26;;;;;;;82.13;37.53;;;8.10;99.90;;;;;;5013006;28;20036;-57
2021/12/25 03:31:53;;;;;;;92.53;39.58;;;8.10;99.90;;;;;;5013109;28;20026;-56
2021/12/25 03:34:20;;;;;;;94.93;39.90;;;8.10;99.90;;;;;;5012395;28;20034;-56
2021/12/25 03:36:46;;;;;;;83.38;39.25;;;8.10;99.90;;;;;;5012925;28;20073;-55
2021/12/25 03:39:13;;;;;;;84.03;37.75;;;8.00;99.90;;;;;;5012718;28;20029;-57
2021/12/25 03:41:39;;;;;;;86.53;38.03;;;8.00;99.90;;;;;;5011588;28;20025;-56
2021/12/25 03:44:05;;;;;;;82.75;38.80;;;8.00;99.90;;;;;;5013364;28;20041;-57
2021/12/25 03:46:31;;;;;;;84.35;37.65;;;8.10;99.90;;;;;;5012414;28;20030;-57
2021/12/25 03:59:38;;;;;;;73.30;35.38;;;7.90;99.90;;;;;;5012579;28;20065;-57
2021/12/25 04:02:12;;;;;;;68.70;35.05;;;7.90;99.90;;;;;;5011092;28;20049;-56
2021/12/25 04:04:43;;;;;;;79.75;35.25;;;7.90;99.90;;;;;;5012455;28;20038;-56
2021/12/25 04:07:29;;;;;;;74.55;36.60;;;8.00;99.90;;;;;;5012480;28;20556;-56
2021/12/25 04:09:59;;;;;;;73.63;35.42;;;8.00;99.90;;;;;;5012113;28;20568;-56
2021/12/25 04:12:25;;;;;;;73.30;36.22;;;7.90;99.90;;;;;;5012135;28;20024;-56
2021/12/25 04:14:50;;;;;;;60.75;34.63;;;7.80;99.90;;;;;;5011972;28;20107;-55
2021/12/25 04:17:16;;;;;;;60.08;32.00;;;7.80;99.90;;;;;;5012085;28;20022;-57
2021/12/25 04:19:42;;;;;;;60.92;33.90;;;7.70;99.90;;;;;;5011541;28;20026;-57
2021/12/25 04:22:15;;;;;;;61.63;33.42;;;7.70;99.90;;;;;;5011594;28;20029;-57
2021/12/25 04:24:42;;;;;;;53.08;29.85;;;7.70;99.90;;;;;;5010217;28;20045;-57
2021/12/25 04:27:12;;;;;;;47.60;29.42;;;7.70;99.90;;;;;;5011580;28;20041;-57
2021/12/25 05:02:46;;;;;;;11.10;9.60;;;7.20;99.90;;;;;;5011854;28;20080;-56
2021/12/25 05:05:18;;;;;;;11.27;10.05;;;7.10;99.90;;;;;;5011021;28;20037;-56
2021/12/25 05:07:44;;;;;;;12.55;10.60;;;7.00;99.90;;;;;;5010908;28;20444;-57
2021/12/25 05:10:09;;;;;;;12.93;9.60;;;7.00;99.90;;;;;;5011669;28;20454;-56
2021/12/25 05:12:35;;;;;;;11.98;10.00;;;7.00;99.90;;;;;;5011414;28;20026;-56
2021/12/25 05:15:01;;;;;;;13.10;10.52;;;7.00;99.90;;;;;;5011285;28;20029;-56
2021/12/25 05:17:26;;;;;;;10.45;9.35;;;7.00;99.90;;;;;;5010888;28;20041;-56
2021/12/25 05:19:52;;;;;;;10.57;9.13;;;7.00;99.90;;;;;;5011059;28;20550;-56
2021/12/25 05:22:18;;;;;;;12.52;9.23;;;7.00;99.90;;;;;;5010942;28;20310;-57
2021/12/25 05:24:45;;;;;;;14.55;10.90;;;7.00;99.90;;;;;;5011225;28;20022;-56
2021/12/25 05:27:13;;;;;;;11.90;9.82;;;6.90;99.90;;;;;;5010856;28;20053;-57
2021/12/25 05:29:41;;;;;;;11.80;9.70;;;6.90;99.90;;;;;;5011101;28;20038;-57
2021/12/25 05:32:07;;;;;;;13.02;9.57;;;6.80;99.90;;;;;;5011086;28;20030;-57
2021/12/25 05:34:32;;;;;;;10.30;9.20;;;6.80;99.90;;;;;;5011280;28;20510;-57
2021/12/25 05:36:58;;;;;;;13.40;10.98;;;6.80;99.90;;;;;;5010814;28;20029;-56
2021/12/25 05:39:24;;;;;;;13.23;11.35;;;6.80;99.90;;;;;;5010989;28;20018;-57
2021/12/25 05:41:50;;;;;;;13.55;10.85;;;6.90;99.90;;;;;;5010959;28;20549;-56
2021/12/25 05:44:16;;;;;;;12.45;10.98;;;6.90;99.90;;;;;;5011031;28;20022;-57
2021/12/25 05:46:42;;;;;;;12.80;10.95;;;6.90;99.90;;;;;;5011078;28;20410;-56
2021/12/25 05:49:08;;;;;;;14.25;11.98;;;6.90;99.90;;;;;;5010903;28;20040;-57
2021/12/25 05:51:33;;;;;;;15.00;11.77;;;6.90;99.90;;;;;;5010776;28;20030;-57
2021/12/25 05:53:59;;;;;;;15.00;12.27;;;6.90;99.90;;;;;;5010919;28;20057;-56
2021/12/25 05:56:24;;;;;;;15.00;12.75;;;6.90;99.90;;;;;;5010343;28;20029;-57
2021/12/25 05:58:50;;;;;;;14.63;12.10;;;6.90;99.90;;;;;;5013943;28;20538;-56
2021/12/25 06:01:16;;;;;;;15.32;12.75;;;6.80;99.90;;;;;;5014614;28;20032;-57
2021/12/25 06:03:41;;;;;;;18.70;14.05;;;6.80;99.90;;;;;;5014611;28;20040;-56
2021/12/25 06:06:07;;;;;;;19.42;14.68;;;6.90;99.90;;;;;;5014991;28;20119;-56
2021/12/25 06:08:33;;;;;;;24.60;16.52;;;6.90;99.90;;;;;;5014921;28;20378;-56
2021/12/25 06:11:02;;;;;;;25.10;16.92;;;6.90;99.90;;;;;;5014627;28;20388;-56
2021/12/25 06:13:28;;;;;;;23.13;16.90;;;6.80;99.90;;;;;;5014756;28;20053;-56
2021/12/25 06:15:55;;;;;;;24.27;16.73;;;6.80;99.90;;;;;;5014375;28;20152;-56
2021/12/25 06:18:21;;;;;;;22.75;15.60;;;6.60;99.90;;;;;;5014349;28;20097;-57
2021/12/25 06:20:47;;;;;;;25.17;17.42;;;6.60;99.90;;;;;;5012646;28;20156;-57
2021/12/25 06:23:13;;;;;;;23.25;16.15;;;6.70;99.90;;;;;;5014339;28;20033;-57
2021/12/25 06:25:38;;;;;;;28.33;18.48;;;6.60;99.90;;;;;;5013895;28;20038;-57
2021/12/25 06:28:04;;;;;;;25.17;16.92;;;6.70;99.90;;;;;;5014071;28;20033;-57
2021/12/25 06:30:30;;;;;;;24.75;17.55;;;6.70;99.90;;;;;;5012701;28;20121;-57
2021/12/25 06:32:56;;;;;;;23.67;15.48;;;6.60;99.90;;;;;;5014011;28;20499;-57
2021/12/25 06:35:21;;;;;;;26.25;16.63;;;6.60;99.90;;;;;;5014294;28;20108;-56
2021/12/25 06:37:47;;;;;;;29.15;18.42;;;6.50;99.90;;;;;;5014210;28;20024;-56
2021/12/25 06:40:17;;;;;;;32.00;20.20;;;6.50;99.90;;;;;;5014065;28;20072;-56
2021/12/25 06:42:43;;;;;;;31.40;18.98;;;6.40;99.90;;;;;;5014198;28;20022;-56
2021/12/25 06:45:09;;;;;;;32.28;18.75;;;6.40;99.90;;;;;;5012730;28;20057;-56
2021/12/25 06:47:35;;;;;;;29.90;19.63;;;6.30;99.90;;;;;;5012607;28;20422;-56
2021/12/25 06:50:02;;;;;;;29.90;18.60;;;6.20;99.90;;;;;;5013229;28;20394;-56
2021/12/25 06:52:28;;;;;;;32.03;20.25;;;6.20;99.90;;;;;;5013754;28;20035;-56
2021/12/25 06:54:53;;;;;;;30.48;19.63;;;6.20;99.90;;;;;;5014143;28;20475;-56
2021/12/25 06:57:19;;;;;;;33.38;21.02;;;6.20;99.90;;;;;;5013490;28;20037;-56
2021/12/25 06:59:45;;;;;;;35.03;21.23;;;6.20;99.90;;;;;;5013483;28;20061;-56
2021/12/25 07:02:12;;;;;;;37.85;21.90;;;6.20;99.90;;;;;;5013774;28;20403;-56
2021/12/25 07:04:38;;;;;;;33.67;20.73;;;6.10;99.90;;;;;;5013627;28;20515;-56
2021/12/25 07:07:04;;;;;;;33.25;20.83;;;6.10;99.90;;;;;;5013565;28;20168;-56
2021/12/25 07:09:29;;;;;;;30.17;18.83;;;6.00;99.90;;;;;;5013219;28;20108;-56
2021/12/25 07:11:58;;;;;;;33.92;20.38;;;6.00;99.90;;;;;;5013338;28;20415;-55
2021/12/25 07:14:25;;;;;;;26.08;17.05;;;6.00;99.90;;;;;;5013477;28;20402;-56
2021/12/25 07:16:50;;;;;;;25.65;17.13;;;5.90;99.90;;;;;;5013305;28;20026;-55
2021/12/25 07:19:16;;;;;;;28.13;17.65;;;5.90;99.90;;;;;;5013046;28;20026;-55
2021/12/25 07:21:43;;;;;;;27.58;17.77;;;5.80;99.90;;;;;;5012793;28;20037;-55
2021/12/25 07:24:09;;;;;;;24.00;15.68;;;5.80;99.90;;;;;;5012933;28;20418;-55
2021/12/25 07:26:36;;;;;;;25.67;16.33;;;5.70;99.90;;;;;;5012947;28;20415;-55
2021/12/25 07:29:03;;;;;;;21.88;14.45;;;5.70;99.90;;;;;;5013013;28;20026;-55
2021/12/25 07:31:28;;;;;;;20.73;14.57;;;5.70;99.90;;;;;;5013132;28;20030;-55
2021/12/25 07:33:54;;;;;;;23.75;15.52;;;5.60;99.90;;;;;;5013298;28;20041;-55
2021/12/25 07:36:20;;;;;;;22.65;15.25;;;5.60;99.90;;;;;;5012833;28;20521;-55
2021/12/25 07:38:46;;;;;;;19.63;13.25;;;5.60;99.90;;;;;;5012987;28;20080;-56
2021/12/25 07:41:12;;;;;;;21.27;14.10;;;5.60;99.90;;;;;;5012375;28;20025;-56
2021/12/25 07:43:38;;;;;;;22.40;14.23;;;5.50;99.90;;;;;;5012988;28;20466;-56
2021/12/25 07:46:04;;;;;;;19.67;13.68;;;5.50;99.90;;;;;;5012665;28;20126;-56
2021/12/25 07:48:33;;;;;;;16.73;12.05;;;5.50;99.90;;;;;;5012567;28;20026;-56
2021/12/25 07:50:58;;;;;;;18.73;13.00;;;5.50;99.90;;;;;;5013010;28;20177;-56
2021/12/25 07:53:24;;;;;;;19.15;13.02;;;5.30;99.90;;;;;;5013021;28;20037;-56
2021/12/25 07:55:50;;;;;;;21.98;13.70;;;5.30;99.90;;;;;;5011347;28;20446;-56
2021/12/25 07:58:17;;;;;;;22.10;13.85;;;5.20;99.90;;;;;;5012759;28;20388;-56
2021/12/25 08:00:44;;;;;;;23.27;15.35;;;5.20;99.90;;;;;;5012525;28;20045;-56
2021/12/25 08:03:11;;;;;;;27.38;17.13;;;5.20;99.90;;;;;;5012810;28;20018;-56
2021/12/25 08:05:36;;;;;;;26.27;16.85;;;5.20;99.90;;;;;;5012437;28;20036;-56
2021/12/25 08:08:03;;;;;;;26.45;16.30;;;5.20;99.90;;;;;;5012489;28;20030;-56
2021/12/25 08:10:29;;;;;;;27.88;17.48;;;5.20;99.90;;;;;;5012740;28;20033;-55
2021/12/25 08:12:59;;;;;;;22.70;15.73;;;5.20;99.90;;;;;;5012706;28;20552;-55
2021/12/25 08:15:27;;;;;;;27.80;16.95;;;5.20;99.90;;;;;;5012387;28;20021;-55
2021/12/25 08:17:55;;;;;;;25.15;17.00;;;5.30;99.90;;;;;;5012383;28;20530;-56
2021/12/25 08:20:21;;;;;;;24.98;16.08;;;5.30;99.90;;;;;;5011945;28;20379;-55
2021/12/25 08:22:46;;;;;;;20.15;14.13;;;5.30;99.90;;;;;;5011958;28;20034;-57
2021/12/25 08:25:14;;;;;;;20.33;14.63;;;5.20;99.90;;;;;;5011807;28;20033;-56
2021/12/25 08:27:42;;;;;;;19.63;14.35;;;5.10;99.90;;;;;;5010645;28;20371;-57
2021/12/25 08:30:10;;;;;;;20.17;14.45;;;5.10;99.90;;;;;;5012055;28;20504;-57
2021/12/25 08:32:38;;;;;;;22.30;15.63;;;5.00;99.90;;;;;;5011732;28;20080;-56
2021/12/25 08:35:04;;;;;;;22.05;15.65;;;4.90;99.90;;;;;;5011602;28;20038;-56
2021/12/25 08:37:31;;;;;;;24.33;16.23;;;4.90;99.90;;;;;;5011817;28;20029;-56
2021/12/25 08:39:57;;;;;;;24.88;17.30;;;4.90;99.90;;;;;;5011786;28;20022;-56
2021/12/25 08:42:23;;;;;;;24.67;17.00;;;4.90;99.90;;;;;;5011888;28;20434;-56
2021/12/25 08:47:29;;;;;;;26.02;18.17;;;4.80;99.90;;;;;;5012467;28;20058;-56
2021/12/25 08:49:55;;;;;;;28.90;20.13;;;4.70;99.90;;;;;;5011973;28;20474;-56
2021/12/25 08:52:23;;;;;;;32.55;21.40;;;4.80;99.90;;;;;;5011713;28;20022;-56
2021/12/25 08:54:49;;;;;;;29.52;20.35;;;4.80;99.90;;;;;;5011537;28;20026;-56
2021/12/25 08:57:17;;;;;;;31.73;21.88;;;4.70;99.90;;;;;;5011407;28;20114;-56
2021/12/25 08:59:43;;;;;;;31.23;21.35;;;4.70;99.90;;;;;;5011540;28;20462;-56
2021/12/25 09:02:13;;;;;;;30.90;21.38;;;4.60;99.90;;;;;;5011544;28;20033;-56
2021/12/25 09:04:41;;;;;;;30.02;20.98;;;4.50;99.90;;;;;;5011662;28;20036;-56
2021/12/25 09:07:07;;;;;;;33.05;22.67;;;4.60;99.90;;;;;;5011514;28;20026;-56
2021/12/25 09:09:33;;;;;;;31.27;21.95;;;4.60;99.90;;;;;;5011634;28;20037;-56
2021/12/25 09:11:59;;;;;;;35.60;23.50;;;4.70;99.90;;;;;;5011571;28;20068;-56
2021/12/25 09:14:25;;;;;;;33.75;23.02;;;4.60;99.90;;;;;;5011521;28;20064;-56
2021/12/25 09:16:56;;;;;;;37.92;24.10;;;4.60;99.90;;;;;;5011364;28;20034;-56
2021/12/25 09:19:22;;;;;;;36.00;23.25;;;4.60;99.90;;;;;;5011089;28;20026;-57
2021/12/25 09:21:48;;;;;;;33.13;22.42;;;4.60;99.90;;;;;;5011347;28;20033;-56
2021/12/25 09:24:15;;;;;;;31.45;21.77;;;4.60;99.90;;;;;;5011327;28;20426;-56
2021/12/25 09:26:41;;;;;;;33.67;22.33;;;4.60;99.90;;;;;;5010949;28;20120;-56
2021/12/25 09:29:07;;;;;;;29.05;19.52;;;4.60;99.90;;;;;;5011413;28;20519;-56
2021/12/25 09:31:32;;;;;;;30.80;20.58;;;4.60;99.90;;;;;;5011303;28;20062;-56
2021/12/25 09:33:58;;;;;;;35.78;23.27;;;4.60;99.90;;;;;;5015138;28;20034;-56
2021/12/25 09:36:24;;;;;;;34.42;21.92;;;4.60;99.90;;;;;;5015326;28;20034;-56
2021/12/25 09:38:50;;;;;;;32.90;21.70;;;4.60;99.90;;;;;;5014921;28;20053;-56
2021/12/25 09:41:16;;;;;;;29.88;20.63;;;4.50;99.90;;;;;;5014900;28;20022;-56
2021/12/25 09:43:46;;;;;;;32.88;22.85;;;4.50;99.90;;;;;;5015181;28;20129;-56
2021/12/25 09:46:12;;;;;;;32.42;23.17;;;4.60;99.90;;;;;;5014946;28;20038;-56
2021/12/25 09:48:37;;;;;;;34.65;24.02;;;4.60;99.90;;;;;;5014040;28;20041;-55
2021/12/25 09:51:04;;;;;;;36.08;26.80;;;4.60;99.90;;;;;;5015427;28;20113;-56
2021/12/25 09:53:31;;;;;;;32.60;22.23;;;4.60;99.90;;;;;;5015385;28;20113;-56
2021/12/25 09:55:57;;;;;;;29.95;21.85;;;4.50;99.90;;;;;;5014863;28;20037;-56
2021/12/25 09:58:23;;;;;;;29.23;20.38;;;4.40;99.90;;;;;;5014946;28;20030;-56
2021/12/25 10:00:53;;;;;;;28.90;19.20;;;4.40;99.90;;;;;;5013889;28;20579;-56
2021/12/25 10:03:20;;;;;;;31.52;22.05;;;4.40;99.90;;;;;;5014883;28;20022;-55
2021/12/25 10:05:48;;;;;;;32.45;22.40;;;4.40;99.90;;;;;;5014635;28;20033;-55
2021/12/25 10:08:27;;;;;;;31.55;21.67;;;4.50;99.90;;;;;;5014773;28;20042;-55
2021/12/25 10:10:59;;;;;;;28.70;20.10;;;4.50;99.90;;;;;;5014770;28;20029;-55
2021/12/25 10:13:39;;;;;;;30.73;20.45;;;4.40;99.90;;;;;;5014704;28;20038;-55
2021/12/25 10:16:43;;;;;;;31.67;21.95;;;4.30;99.90;;;;;;5014922;28;20033;-55
2021/12/25 10:19:15;;;;;;;28.50;20.42;;;4.30;99.90;;;;;;5012278;28;20108;-55
2021/12/25 10:21:40;;;;;;;29.40;20.10;;;4.30;99.90;;;;;;5011789;28;20324;-55
2021/12/25 10:24:15;;;;;;;26.70;19.05;;;4.40;99.90;;;;;;5013281;28;20505;-55
2021/12/25 10:26:44;;;;;;;28.20;20.38;;;4.50;99.90;;;;;;5014097;28;20046;-55
2021/12/25 10:29:23;;;;;;;24.00;17.83;;;4.50;99.90;;;;;;5013503;28;20014;-55
2021/12/25 10:31:54;;;;;;;25.30;19.08;;;4.40;99.90;;;;;;5013433;28;20026;-55
2021/12/25 10:34:26;;;;;;;26.48;20.00;;;4.30;99.90;;;;;;5013504;28;20045;-55
2021/12/25 10:36:52;;;;;;;24.83;19.05;;;4.40;99.90;;;;;;5013700;28;20018;-56
2021/12/25 10:39:25;;;;;;;29.15;20.38;;;4.50;99.90;;;;;;5013268;28;20082;-56
2021/12/25 10:41:58;;;;;;;28.90;21.45;;;4.50;99.90;;;;;;5011813;28;20041;-56
2021/12/25 10:44:47;;;;;;;26.70;19.50;;;4.50;99.90;;;;;;5013052;28;20386;-56
2021/12/25 10:47:31;;;;;;;27.38;20.20;;;4.50;99.90;;;;;;5012248;28;20080;-56
2021/12/25 10:50:02;;;;;;;31.10;21.10;;;4.40;99.90;;;;;;5013126;28;20113;-56
2021/12/25 10:52:33;;;;;;;33.78;22.63;;;4.50;99.90;;;;;;5013396;28;20049;-56
2021/12/25 10:55:06;;;;;;;29.67;20.92;;;4.50;99.90;;;;;;5013131;28;20030;-56
2021/12/25 10:57:33;;;;;;;34.15;24.02;;;4.30;99.90;;;;;;5013240;28;20112;-56
2021/12/25 10:59:59;;;;;;;38.28;23.52;;;4.30;99.90;;;;;;5012968;28;20018;-56
2021/12/25 11:02:33;;;;;;;39.22;24.60;;;4.20;99.90;;;;;;5011649;28;20028;-56
2021/12/25 11:04:59;;;;;;;38.95;25.35;;;4.20;99.90;;;;;;5013264;28;20064;-56
2021/12/25 11:07:26;;;;;;;37.25;25.00;;;4.10;99.90;;;;;;5013416;28;20057;-56
2021/12/25 11:10:10;;;;;;;38.03;26.20;;;4.10;99.90;;;;;;5012427;28;20660;-56
2021/12/25 11:12:37;;;;;;;41.50;27.08;;;4.10;99.90;;;;;;5012839;28;20026;-56
2021/12/25 11:15:17;;;;;;;43.40;26.60;;;4.20;99.90;;;;;;5012294;28;20034;-57
2021/12/25 11:17:49;;;;;;;41.00;27.15;;;4.30;99.90;;;;;;5012707;28;20597;-57
2021/12/25 11:20:22;;;;;;;45.55;27.15;;;4.30;99.90;;;;;;5011968;28;20495;-57
2021/12/25 11:22:49;;;;;;;;;;;4.30;99.90;;;;;;5013085;28;20247;-57
2021/12/25 11:25:17;;;;;;;41.83;26.83;;;4.20;99.90;;;;;;4975096;28;1084174;-56
2021/12/25 11:27:42;;;;;;;40.88;27.48;;;4.20;99.90;;;;;;5013533;28;20029;-57
2021/12/25 11:30:09;;;;;;;37.30;25.88;;;4.20;99.90;;;;;;5013250;28;20112;-57
2021/12/25 11:32:34;;;;;;;40.13;26.45;;;4.30;99.90;;;;;;5013855;28;20057;-57
2021/12/25 11:35:00;;;;;;;40.05;27.08;;;4.30;99.90;;;;;;5013311;28;20447;-57
2021/12/25 11:37:26;;;;;;;44.15;27.98;;;4.40;99.90;;;;;;5013425;28;20030;-57
2021/12/25 11:39:54;;;;;;;48.50;28.98;;;4.30;99.90;;;;;;5013678;28;20084;-57
2021/12/25 11:42:22;;;;;;;45.97;29.85;;;4.20;99.90;;;;;;5012756;28;20442;-57
2021/12/25 11:44:52;;;;;;;47.97;29.80;;;4.30;99.90;;;;;;5013339;28;20026;-57
2021/12/25 11:47:39;;;;;;;38.58;26.33;;;4.30;99.90;;;;;;5013194;28;20030;-57
2021/12/25 11:50:13;;;;;;;44.65;29.48;;;4.20;99.90;;;;;;5012993;28;20125;-57
2021/12/25 11:52:49;;;;;;;40.25;28.33;;;4.20;99.90;;;;;;5013002;28;20033;-57
2021/12/25 11:58:51;;;;;;;41.30;27.77;;;4.20;99.90;;;;;;5013058;28;20165;-57
2021/12/25 12:01:32;;;;;;;42.53;28.55;;;4.20;99.90;;;;;;5012306;28;20030;-57
2021/12/25 12:04:09;;;;;;;41.55;28.85;;;4.20;99.90;;;;;;5012771;28;20399;-57
2021/12/25 12:06:47;;;;;;;41.65;27.98;;;4.20;99.90;;;;;;5012747;28;20045;-57
2021/12/25 12:09:17;;;;;;;42.20;29.30;;;4.20;99.90;;;;;;5012159;28;20044;-57
2021/12/25 12:11:46;;;;;;;42.53;26.48;;;4.20;99.90;;;;;;5012951;28;20014;-57
2021/12/25 12:14:26;;;;;;;43.75;28.88;;;4.30;99.90;;;;;;5011587;28;20396;-57
2021/12/25 12:16:56;;;;;;;39.60;26.45;;;4.20;99.90;;;;;;5011547;28;20137;-57
2021/12/25 12:19:41;;;;;;;45.03;29.42;;;4.10;99.90;;;;;;5013003;28;20033;-57
2021/12/25 12:22:20;;;;;;;46.58;28.70;;;4.00;99.90;;;;;;5012065;28;20028;-57
2021/12/25 12:27:37;;;;;;;49.25;29.63;;;4.00;99.90;;;;;;5011698;28;20041;-57
2021/12/25 12:30:11;;;;;;;49.10;30.95;;;4.00;99.90;;;;;;5011885;28;20022;-57
2021/12/25 12:32:46;;;;;;;51.85;32.50;;;3.90;99.90;;;;;;5012277;28;20022;-57
2021/12/25 12:35:33;;;;;;;52.33;32.47;;;4.00;99.90;;;;;;5011671;28;20022;-57
2021/12/25 12:38:39;;;;;;;45.33;28.42;;;3.90;99.90;;;;;;5012485;28;20499;-57
2021/12/25 12:41:12;;;;;;;48.42;30.95;;;3.80;99.90;;;;;;5012119;28;20491;-57
2021/12/25 12:43:57;;;;;;;67.50;38.35;;;3.70;99.90;;;;;;5012213;28;20048;-58
2021/12/25 12:46:25;;;;;;;51.50;31.27;;;3.70;99.90;;;;;;5012575;28;20029;-58
2021/12/25 12:49:08;;;;;;;47.42;29.67;;;3.80;99.90;;;;;;5012055;28;20101;-57
2021/12/25 12:51:36;;;;;;;52.05;31.90;;;3.80;99.90;;;;;;5012245;28;20088;-57
2021/12/25 12:54:03;;;;;;;51.65;32.33;;;3.80;99.90;;;;;;5011916;28;20049;-58
2021/12/25 12:56:30;;;;;;;54.42;33.67;;;3.80;99.90;;;;;;5011589;28;20029;-58
2021/12/25 12:58:57;;;;;;;50.45;32.20;;;3.70;99.90;;;;;;5012181;28;20026;-58
2021/12/25 13:01:24;;;;;;;53.83;32.92;;;3.80;99.90;;;;;;5012203;28;20505;-57
2021/12/25 13:03:57;;;;;;;52.08;33.05;;;3.70;99.90;;;;;;5011931;28;20041;-57
2021/12/25 13:06:27;;;;;;;52.35;33.95;;;3.70;99.90;;;;;;5011919;28;20025;-57
2021/12/25 13:08:53;;;;;;;55.80;33.88;;;3.80;99.90;;;;;;5011721;28;20050;-57
2021/12/25 13:11:29;;;;;;;54.80;34.72;;;3.80;99.90;;;;;;5011684;28;20033;-57
2021/12/25 13:14:00;;;;;;;56.00;34.28;;;3.80;99.90;;;;;;5011691;28;20069;-57
2021/12/25 13:16:39;;;;;;;60.00;37.60;;;3.70;99.90;;;;;;5011603;28;20469;-57
2021/12/25 13:19:06;;;;;;;57.47;35.28;;;3.70;99.90;;;;;;5011555;28;20025;-57
2021/12/25 13:21:34;;;;;;;59.58;36.88;;;3.60;99.90;;;;;;5011032;28;20028;-57
2021/12/25 13:24:13;;;;;;;62.45;37.03;;;3.50;99.90;;;;;;5011911;28;20491;-58
2021/12/25 13:26:47;;;;;;;60.53;35.40;;;3.40;99.90;;;;;;5010430;28;20052;-58
2021/12/25 13:29:18;;;;;;;64.45;38.92;;;3.40;99.90;;;;;;5012348;28;20026;-58
2021/12/25 13:31:44;;;;;;;65.28;37.88;;;3.30;99.90;;;;;;5012050;28;20029;-57
2021/12/25 13:34:13;;;;;;;66.75;39.50;;;3.30;99.90;;;;;;5011145;28;20132;-57
2021/12/25 13:36:42;;;;;;;62.15;38.15;;;3.30;99.90;;;;;;5009959;28;20014;-57
2021/12/25 13:39:15;;;;;;;62.05;37.17;;;3.30;99.90;;;;;;5010968;28;20030;-57
2021/12/25 13:41:46;;;;;;;63.00;37.97;;;3.40;99.90;;;;;;5011058;28;20178;-58
2021/12/25 13:44:33;;;;;;;71.38;40.53;;;3.30;99.90;;;;;;5011365;28;20109;-57
2021/12/25 13:47:03;;;;;;;67.20;37.97;;;3.30;99.90;;;;;;5011470;28;20108;-57
2021/12/25 13:49:38;;;;;;;70.03;40.38;;;3.20;99.90;;;;;;5011800;28;20156;-57
2021/12/25 13:52:12;;;;;;;72.00;40.30;;;3.20;99.90;;;;;;5011431;28;20033;-57
2021/12/25 13:54:44;;;;;;;66.65;40.78;;;3.20;99.90;;;;;;5011458;28;20459;-58
2021/12/25 13:57:13;;;;;;;70.53;43.20;;;3.20;99.90;;;;;;5011333;28;20034;-58
2021/12/25 13:59:40;;;;;;;67.60;40.60;;;3.10;99.90;;;;;;5011157;28;20099;-57
2021/12/25 14:02:10;;;;;;;62.75;38.58;;;3.20;99.90;;;;;;5010879;28;20491;-57
2021/12/25 14:04:39;;;;;;;63.65;38.60;;;3.30;99.90;;;;;;5011544;28;20022;-57